Terminal Aerodrome Forecast
Issued by NWS Pueblo, CO

Home | Current Version | Previous Version | Text Only | Print | Product List | Glossary On
Versions: 1 2 3 4 5 6 7 8 9 10 11 12 13 14 15 16 17 18 19 20 21 22 23 24 25 26 27 28 29 30 31 32 33 34 35 36 37 38 39 40 41 42 43 44 45 46 47 48 49 50
054
FTUS45 KPUB 240041 AAB
TAFPUB
TAF AMD
KPUB 240041Z 2401/2424 34015G30KT P6SM VCTS SCT100CB BKN120
     FM240200 08012KT P6SM SCT120 BKN200
     FM240500 36007KT P6SM SCT150 SCT200
     FM241400 VRB05KT P6SM SCT120 SCT200
     FM242100 10010KT P6SM VCTS SCT080CB BKN120=

USA.gov is the U.S. government's official web portal to all federal, state and local government web resources and services.